sensor_id;sensor_type;location;lat;lon;timestamp;P1;durP1;ratioP1;P2;durP2;ratioP2
74788;SDS011;63313;48.258;12.518;2023-04-25T00:04:08;3.1;;;2.12;;
74788;SDS011;63313;48.258;12.518;2023-04-25T00:09:35;2.98;;;2.2199999999999998;;
74788;SDS011;63313;48.258;12.518;2023-04-25T00:15:02;4.13;;;2.4200000000000004;;
74788;SDS011;63313;48.258;12.518;2023-04-25T00:20:30;3.4699999999999998;;;2.33;;
74788;SDS011;63313;48.258;12.518;2023-04-25T00:25:57;5.42;;;2.2600000000000002;;
74788;SDS011;63313;48.258;12.518;2023-04-25T00:31:24;2.65;;;2.1100000000000003;;
74788;SDS011;63313;48.258;12.518;2023-04-25T00:36:51;2.67;;;2.2;;
74788;SDS011;63313;48.258;12.518;2023-04-25T00:42:18;2.41;;;2.2499999999999996;;
74788;SDS011;63313;48.258;12.518;2023-04-25T00:47:45;2.89;;;2.52;;
74788;SDS011;63313;48.258;12.518;2023-04-25T00:53:12;3.6699999999999995;;;2.59;;
74788;SDS011;63313;48.258;12.518;2023-04-25T00:58:40;4.67;;;2.7199999999999998;;
74788;SDS011;63313;48.258;12.518;2023-04-25T01:04:08;5.5200000000000005;;;2.87;;
74788;SDS011;63313;48.258;12.518;2023-04-25T01:09:35;3.4199999999999995;;;2.6;;
74788;SDS011;63313;48.258;12.518;2023-04-25T01:15:02;3.21;;;2.64;;
74788;SDS011;63313;48.258;12.518;2023-04-25T01:20:30;6.4;;;2.75;;
74788;SDS011;63313;48.258;12.518;2023-04-25T01:25:58;5.1499999999999995;;;3.0;;
74788;SDS011;63313;48.258;12.518;2023-04-25T01:31:26;4.35;;;3.2;;
74788;SDS011;63313;48.258;12.518;2023-04-25T01:36:53;6.39;;;3.2300000000000004;;
74788;SDS011;63313;48.258;12.518;2023-04-25T01:42:20;5.619999999999999;;;3.5100000000000002;;
74788;SDS011;63313;48.258;12.518;2023-04-25T01:47:47;4.970000000000001;;;3.4;;
74788;SDS011;63313;48.258;12.518;2023-04-25T01:53:14;7.0;;;3.4699999999999998;;
74788;SDS011;63313;48.258;12.518;2023-04-25T01:58:41;3.8299999999999996;;;2.9000000000000004;;
74788;SDS011;63313;48.258;12.518;2023-04-25T02:04:08;3.69;;;3.05;;
74788;SDS011;63313;48.258;12.518;2023-04-25T02:09:35;4.1;;;3.04;;
74788;SDS011;63313;48.258;12.518;2023-04-25T02:15:03;4.619999999999999;;;2.9099999999999997;;
74788;SDS011;63313;48.258;12.518;2023-04-25T02:20:30;4.7;;;3.7;;
74788;SDS011;63313;48.258;12.518;2023-04-25T02:25:57;4.1;;;3.0300000000000002;;
74788;SDS011;63313;48.258;12.518;2023-04-25T02:31:24;6.0600000000000005;;;3.66;;
74788;SDS011;63313;48.258;12.518;2023-04-25T02:36:51;5.630000000000001;;;3.5100000000000002;;
74788;SDS011;63313;48.258;12.518;2023-04-25T02:42:18;8.41;;;3.6;;
74788;SDS011;63313;48.258;12.518;2023-04-25T02:47:46;5.819999999999999;;;3.999999999999999;;
74788;SDS011;63313;48.258;12.518;2023-04-25T02:53:13;3.9900000000000007;;;3.53;;
74788;SDS011;63313;48.258;12.518;2023-04-25T02:58:40;4.4399999999999995;;;3.09;;
74788;SDS011;63313;48.258;12.518;2023-04-25T03:04:07;2.91;;;2.5700000000000003;;
74788;SDS011;63313;48.258;12.518;2023-04-25T03:09:34;4.34;;;3.3599999999999994;;
74788;SDS011;63313;48.258;12.518;2023-04-25T03:15:01;5.819999999999999;;;3.56;;
74788;SDS011;63313;48.258;12.518;2023-04-25T03:20:28;7.4399999999999995;;;3.4800000000000004;;
74788;SDS011;63313;48.258;12.518;2023-04-25T03:25:55;3.9699999999999998;;;3.34;;
74788;SDS011;63313;48.258;12.518;2023-04-25T03:31:22;6.95;;;4.42;;
74788;SDS011;63313;48.258;12.518;2023-04-25T03:36:49;4.1000000000000005;;;3.6799999999999997;;
74788;SDS011;63313;48.258;12.518;2023-04-25T03:42:16;6.410000000000001;;;3.46;;
74788;SDS011;63313;48.258;12.518;2023-04-25T03:47:43;6.959999999999999;;;4.090000000000001;;
74788;SDS011;63313;48.258;12.518;2023-04-25T03:53:10;6.720000000000001;;;4.69;;
74788;SDS011;63313;48.258;12.518;2023-04-25T03:58:37;4.669999999999999;;;3.999999999999999;;
74788;SDS011;63313;48.258;12.518;2023-04-25T04:04:04;10.76;;;4.529999999999999;;
74788;SDS011;63313;48.258;12.518;2023-04-25T04:09:31;6.62;;;4.11;;
74788;SDS011;63313;48.258;12.518;2023-04-25T04:14:58;4.99;;;4.33;;
74788;SDS011;63313;48.258;12.518;2023-04-25T04:20:25;5.380000000000001;;;4.26;;
74788;SDS011;63313;48.258;12.518;2023-04-25T04:25:52;4.32;;;3.9299999999999997;;
74788;SDS011;63313;48.258;12.518;2023-04-25T04:31:20;6.08;;;4.35;;
74788;SDS011;63313;48.258;12.518;2023-04-25T04:36:47;6.5;;;4.83;;
74788;SDS011;63313;48.258;12.518;2023-04-25T04:42:14;11.129999999999999;;;5.08;;
74788;SDS011;63313;48.258;12.518;2023-04-25T04:47:41;7.65;;;4.63;;
74788;SDS011;63313;48.258;12.518;2023-04-25T04:53:08;9.18;;;4.63;;
74788;SDS011;63313;48.258;12.518;2023-04-25T04:58:35;7.950000000000001;;;3.7300000000000004;;
74788;SDS011;63313;48.258;12.518;2023-04-25T05:04:03;5.459999999999999;;;3.1499999999999995;;
74788;SDS011;63313;48.258;12.518;2023-04-25T05:09:30;5.4799999999999995;;;3.4899999999999998;;
74788;SDS011;63313;48.258;12.518;2023-04-25T05:14:57;5.5600000000000005;;;3.5;;
74788;SDS011;63313;48.258;12.518;2023-04-25T05:20:24;9.34;;;3.4899999999999998;;
74788;SDS011;63313;48.258;12.518;2023-04-25T05:25:51;5.470000000000001;;;3.3099999999999996;;
74788;SDS011;63313;48.258;12.518;2023-04-25T05:31:18;7.19;;;3.59;;
74788;SDS011;63313;48.258;12.518;2023-04-25T05:36:45;8.360000000000001;;;3.6699999999999995;;
74788;SDS011;63313;48.258;12.518;2023-04-25T05:42:12;5.880000000000001;;;3.13;;
74788;SDS011;63313;48.258;12.518;2023-04-25T05:47:39;6.250000000000001;;;3.7;;
74788;SDS011;63313;48.258;12.518;2023-04-25T05:53:06;9.469999999999999;;;3.3899999999999997;;
74788;SDS011;63313;48.258;12.518;2023-04-25T05:58:33;4.2;;;2.5100000000000002;;
74788;SDS011;63313;48.258;12.518;2023-04-25T06:04:00;5.5600000000000005;;;2.63;;
74788;SDS011;63313;48.258;12.518;2023-04-25T06:09:27;4.200000000000001;;;3.04;;
74788;SDS011;63313;48.258;12.518;2023-04-25T06:14:54;3.81;;;3.01;;
74788;SDS011;63313;48.258;12.518;2023-04-25T06:20:21;9.6;;;3.9899999999999998;;
74788;SDS011;63313;48.258;12.518;2023-04-25T06:25:48;5.56;;;3.54;;
74788;SDS011;63313;48.258;12.518;2023-04-25T06:31:15;5.4399999999999995;;;4.1000000000000005;;
74788;SDS011;63313;48.258;12.518;2023-04-25T06:36:43;3.6399999999999997;;;3.0799999999999996;;
74788;SDS011;63313;48.258;12.518;2023-04-25T06:42:10;8.61;;;3.87;;
74788;SDS011;63313;48.258;12.518;2023-04-25T06:47:37;5.78;;;3.2399999999999998;;
74788;SDS011;63313;48.258;12.518;2023-04-25T06:53:04;7.760000000000001;;;3.46;;
74788;SDS011;63313;48.258;12.518;2023-04-25T06:58:31;3.9800000000000004;;;1.9899999999999998;;
74788;SDS011;63313;48.258;12.518;2023-04-25T07:03:58;2.9;;;2.17;;
74788;SDS011;63313;48.258;12.518;2023-04-25T07:09:25;2.46;;;1.9699999999999995;;
74788;SDS011;63313;48.258;12.518;2023-04-25T07:14:52;3.18;;;2.2199999999999998;;
74788;SDS011;63313;48.258;12.518;2023-04-25T07:20:19;7.419999999999999;;;2.2800000000000002;;
74788;SDS011;63313;48.258;12.518;2023-04-25T07:25:47;3.2299999999999995;;;2.19;;
74788;SDS011;63313;48.258;12.518;2023-04-25T07:31:14;4.8100000000000005;;;2.25;;
74788;SDS011;63313;48.258;12.518;2023-04-25T07:36:41;2.7600000000000002;;;2.2299999999999995;;
74788;SDS011;63313;48.258;12.518;2023-04-25T07:42:08;3.7099999999999995;;;2.52;;
74788;SDS011;63313;48.258;12.518;2023-04-25T07:47:35;3.9199999999999995;;;2.2399999999999998;;
74788;SDS011;63313;48.258;12.518;2023-04-25T07:53:02;5.6899999999999995;;;1.9900000000000002;;
74788;SDS011;63313;48.258;12.518;2023-04-25T07:58:29;2.2;;;1.9300000000000002;;
74788;SDS011;63313;48.258;12.518;2023-04-25T08:03:56;5.58;;;2.05;;
74788;SDS011;63313;48.258;12.518;2023-04-25T08:09:23;3.9;;;1.6599999999999997;;
74788;SDS011;63313;48.258;12.518;2023-04-25T08:14:50;3.9900000000000007;;;2.0100000000000007;;
74788;SDS011;63313;48.258;12.518;2023-04-25T08:20:17;2.4;;;1.7200000000000002;;
74788;SDS011;63313;48.258;12.518;2023-04-25T08:25:44;7.469999999999999;;;1.75;;
74788;SDS011;63313;48.258;12.518;2023-04-25T08:31:11;2.2600000000000002;;;1.75;;
74788;SDS011;63313;48.258;12.518;2023-04-25T08:36:39;2.69;;;2.0200000000000005;;
74788;SDS011;63313;48.258;12.518;2023-04-25T08:42:06;4.77;;;1.9099999999999997;;
74788;SDS011;63313;48.258;12.518;2023-04-25T08:47:33;2.43;;;2.0;;
74788;SDS011;63313;48.258;12.518;2023-04-25T08:53:00;3.85;;;1.7;;
74788;SDS011;63313;48.258;12.518;2023-04-25T08:58:30;2.0200000000000005;;;1.8299999999999996;;
74788;SDS011;63313;48.258;12.518;2023-04-25T09:03:58;2.43;;;1.69;;
74788;SDS011;63313;48.258;12.518;2023-04-25T09:09:25;5.2700000000000005;;;1.89;;
74788;SDS011;63313;48.258;12.518;2023-04-25T09:15:09;3.6100000000000003;;;1.58;;
74788;SDS011;63313;48.258;12.518;2023-04-25T09:20:40;2.2499999999999996;;;1.5399999999999998;;
74788;SDS011;63313;48.258;12.518;2023-04-25T09:26:08;1.53;;;1.2400000000000002;;
74788;SDS011;63313;48.258;12.518;2023-04-25T09:31:35;2.0100000000000002;;;1.41;;
74788;SDS011;63313;48.258;12.518;2023-04-25T09:37:02;1.75;;;1.3699999999999999;;
74788;SDS011;63313;48.258;12.518;2023-04-25T09:42:29;4.8100000000000005;;;2.3600000000000003;;
74788;SDS011;63313;48.258;12.518;2023-04-25T09:47:56;7.18;;;1.8599999999999999;;
74788;SDS011;63313;48.258;12.518;2023-04-25T09:53:23;2.6;;;1.4099999999999997;;
74788;SDS011;63313;48.258;12.518;2023-04-25T09:58:50;2.3;;;1.89;;
74788;SDS011;63313;48.258;12.518;2023-04-25T10:04:22;2.21;;;1.72;;
74788;SDS011;63313;48.258;12.518;2023-04-25T10:09:50;3.13;;;1.7899999999999998;;
74788;SDS011;63313;48.258;12.518;2023-04-25T10:15:18;4.62;;;2.0;;
74788;SDS011;63313;48.258;12.518;2023-04-25T10:20:46;1.52;;;1.43;;
74788;SDS011;63313;48.258;12.518;2023-04-25T10:26:13;3.5;;;1.8699999999999999;;
74788;SDS011;63313;48.258;12.518;2023-04-25T10:31:44;2.67;;;2.22;;
74788;SDS011;63313;48.258;12.518;2023-04-25T10:37:12;3.0799999999999996;;;0.9099999999999999;;
74788;SDS011;63313;48.258;12.518;2023-04-25T10:42:40;4.16;;;1.3;;
74788;SDS011;63313;48.258;12.518;2023-04-25T10:48:22;1.01;;;1.01;;
74788;SDS011;63313;48.258;12.518;2023-04-25T10:53:59;0.9400000000000002;;;0.8400000000000001;;
74788;SDS011;63313;48.258;12.518;2023-04-25T10:59:26;1.8;;;0.9400000000000001;;
74788;SDS011;63313;48.258;12.518;2023-04-25T11:04:54;2.6900000000000004;;;1.2899999999999998;;
74788;SDS011;63313;48.258;12.518;2023-04-25T11:10:24;1.6800000000000002;;;1.6;;
74788;SDS011;63313;48.258;12.518;2023-04-25T11:15:52;3.35;;;1.42;;
74788;SDS011;63313;48.258;12.518;2023-04-25T11:21:19;1.69;;;1.4899999999999998;;
74788;SDS011;63313;48.258;12.518;2023-04-25T11:26:46;1.5799999999999998;;;1.4300000000000002;;
74788;SDS011;63313;48.258;12.518;2023-04-25T11:32:14;1.67;;;1.5499999999999998;;
74788;SDS011;63313;48.258;12.518;2023-04-25T11:37:42;1.7100000000000002;;;1.28;;
74788;SDS011;63313;48.258;12.518;2023-04-25T11:43:09;1.5699999999999998;;;1.45;;
74788;SDS011;63313;48.258;12.518;2023-04-25T11:48:37;2.1500000000000004;;;1.98;;
74788;SDS011;63313;48.258;12.518;2023-04-25T11:54:04;2.48;;;1.9899999999999998;;
74788;SDS011;63313;48.258;12.518;2023-04-25T11:59:31;3.6399999999999997;;;2.1500000000000004;;
74788;SDS011;63313;48.258;12.518;2023-04-25T12:04:59;1.56;;;1.34;;
74788;SDS011;63313;48.258;12.518;2023-04-25T12:10:26;1.46;;;0.96;;
74788;SDS011;63313;48.258;12.518;2023-04-25T12:15:53;3.8;;;1.32;;
74788;SDS011;63313;48.258;12.518;2023-04-25T12:21:21;2.6399999999999997;;;1.8399999999999999;;
74788;SDS011;63313;48.258;12.518;2023-04-25T12:26:49;4.93;;;2.6100000000000003;;
74788;SDS011;63313;48.258;12.518;2023-04-25T12:32:16;3.7900000000000005;;;2.32;;
74788;SDS011;63313;48.258;12.518;2023-04-25T12:37:43;3.63;;;2.4800000000000004;;
74788;SDS011;63313;48.258;12.518;2023-04-25T12:43:10;2.6999999999999997;;;2.13;;
74788;SDS011;63313;48.258;12.518;2023-04-25T12:48:37;7.57;;;2.0700000000000003;;
74788;SDS011;63313;48.258;12.518;2023-04-25T12:54:05;5.510000000000001;;;2.0200000000000005;;
74788;SDS011;63313;48.258;12.518;2023-04-25T12:59:32;2.66;;;1.8700000000000003;;
74788;SDS011;63313;48.258;12.518;2023-04-25T13:04:59;2.27;;;2.0900000000000003;;
74788;SDS011;63313;48.258;12.518;2023-04-25T13:10:26;6.09;;;2.16;;
74788;SDS011;63313;48.258;12.518;2023-04-25T13:15:53;4.35;;;1.73;;
74788;SDS011;63313;48.258;12.518;2023-04-25T13:21:21;2.5;;;1.3000000000000003;;
74788;SDS011;63313;48.258;12.518;2023-04-25T13:26:48;1.67;;;1.52;;
74788;SDS011;63313;48.258;12.518;2023-04-25T13:32:15;4.299999999999999;;;1.75;;
74788;SDS011;63313;48.258;12.518;2023-04-25T13:37:42;3.4599999999999995;;;2.0200000000000005;;
74788;SDS011;63313;48.258;12.518;2023-04-25T13:43:09;2.8899999999999997;;;2.1100000000000003;;
74788;SDS011;63313;48.258;12.518;2023-04-25T13:48:36;2.0900000000000003;;;1.92;;
74788;SDS011;63313;48.258;12.518;2023-04-25T13:54:03;2.61;;;2.15;;
74788;SDS011;63313;48.258;12.518;2023-04-25T13:59:30;1.4999999999999998;;;1.43;;
74788;SDS011;63313;48.258;12.518;2023-04-25T14:04:57;1.65;;;1.42;;
74788;SDS011;63313;48.258;12.518;2023-04-25T14:10:24;1.8199999999999998;;;1.5699999999999998;;
74788;SDS011;63313;48.258;12.518;2023-04-25T14:15:51;1.5;;;1.4700000000000002;;
74788;SDS011;63313;48.258;12.518;2023-04-25T14:21:18;1.92;;;1.4100000000000001;;
74788;SDS011;63313;48.258;12.518;2023-04-25T14:26:45;1.55;;;1.46;;
74788;SDS011;63313;48.258;12.518;2023-04-25T14:32:12;1.67;;;1.47;;
74788;SDS011;63313;48.258;12.518;2023-04-25T14:37:39;1.7600000000000002;;;1.4899999999999998;;
74788;SDS011;63313;48.258;12.518;2023-04-25T14:43:06;1.7700000000000002;;;1.6800000000000002;;
74788;SDS011;63313;48.258;12.518;2023-04-25T14:48:34;1.97;;;1.61;;
74788;SDS011;63313;48.258;12.518;2023-04-25T14:54:01;1.54;;;1.54;;
74788;SDS011;63313;48.258;12.518;2023-04-25T14:59:28;1.9899999999999998;;;1.4300000000000002;;
74788;SDS011;63313;48.258;12.518;2023-04-25T15:04:55;1.78;;;1.33;;
74788;SDS011;63313;48.258;12.518;2023-04-25T15:10:22;1.42;;;1.39;;
74788;SDS011;63313;48.258;12.518;2023-04-25T15:15:49;2.0799999999999996;;;1.8699999999999999;;
74788;SDS011;63313;48.258;12.518;2023-04-25T15:21:16;2.18;;;2.0100000000000002;;
74788;SDS011;63313;48.258;12.518;2023-04-25T15:26:44;1.8200000000000003;;;1.72;;
74788;SDS011;63313;48.258;12.518;2023-04-25T15:32:11;2.0300000000000002;;;1.6800000000000002;;
74788;SDS011;63313;48.258;12.518;2023-04-25T15:37:38;1.4900000000000002;;;1.44;;
74788;SDS011;63313;48.258;12.518;2023-04-25T15:43:05;1.75;;;1.56;;
74788;SDS011;63313;48.258;12.518;2023-04-25T15:48:32;2.0700000000000003;;;1.9199999999999995;;
74788;SDS011;63313;48.258;12.518;2023-04-25T15:53:59;1.8199999999999998;;;1.72;;
74788;SDS011;63313;48.258;12.518;2023-04-25T15:59:26;2.4099999999999997;;;2.17;;
74788;SDS011;63313;48.258;12.518;2023-04-25T16:04:53;2.11;;;1.8800000000000001;;
74788;SDS011;63313;48.258;12.518;2023-04-25T16:10:21;1.86;;;1.7600000000000002;;
74788;SDS011;63313;48.258;12.518;2023-04-25T16:15:48;1.7600000000000002;;;1.47;;
74788;SDS011;63313;48.258;12.518;2023-04-25T16:21:15;4.32;;;2.15;;
74788;SDS011;63313;48.258;12.518;2023-04-25T16:26:42;2.02;;;1.9100000000000001;;
74788;SDS011;63313;48.258;12.518;2023-04-25T16:32:09;2.7600000000000007;;;2.54;;
74788;SDS011;63313;48.258;12.518;2023-04-25T16:37:36;6.56;;;2.98;;
74788;SDS011;63313;48.258;12.518;2023-04-25T16:43:03;3.9299999999999997;;;3.16;;
74788;SDS011;63313;48.258;12.518;2023-04-25T16:48:31;3.7700000000000005;;;3.0699999999999994;;
74788;SDS011;63313;48.258;12.518;2023-04-25T16:53:58;3.12;;;2.8600000000000003;;
74788;SDS011;63313;48.258;12.518;2023-04-25T16:59:25;3.5900000000000007;;;3.2700000000000005;;
74788;SDS011;63313;48.258;12.518;2023-04-25T17:04:52;4.62;;;3.1300000000000003;;
74788;SDS011;63313;48.258;12.518;2023-04-25T17:10:19;3.14;;;2.04;;
74788;SDS011;63313;48.258;12.518;2023-04-25T17:15:46;2.3;;;2.0300000000000002;;
74788;SDS011;63313;48.258;12.518;2023-04-25T17:21:13;2.46;;;2.2600000000000002;;
74788;SDS011;63313;48.258;12.518;2023-04-25T17:26:40;2.0800000000000005;;;1.9899999999999998;;
74788;SDS011;63313;48.258;12.518;2023-04-25T17:32:08;2.4699999999999998;;;2.28;;
74788;SDS011;63313;48.258;12.518;2023-04-25T17:37:35;2.8600000000000003;;;2.45;;
74788;SDS011;63313;48.258;12.518;2023-04-25T17:43:02;2.45;;;2.2700000000000005;;
74788;SDS011;63313;48.258;12.518;2023-04-25T17:48:30;3.1699999999999995;;;2.5799999999999996;;
74788;SDS011;63313;48.258;12.518;2023-04-25T17:53:57;2.77;;;2.3600000000000003;;
74788;SDS011;63313;48.258;12.518;2023-04-25T17:59:24;4.25;;;2.61;;
74788;SDS011;63313;48.258;12.518;2023-04-25T18:04:51;3.16;;;2.59;;
74788;SDS011;63313;48.258;12.518;2023-04-25T18:10:18;4.21;;;3.3199999999999994;;
74788;SDS011;63313;48.258;12.518;2023-04-25T18:15:45;6.769999999999999;;;3.8899999999999997;;
74788;SDS011;63313;48.258;12.518;2023-04-25T18:21:12;4.619999999999999;;;3.7;;
74788;SDS011;63313;48.258;12.518;2023-04-25T18:26:39;4.17;;;3.25;;
74788;SDS011;63313;48.258;12.518;2023-04-25T18:32:06;5.99;;;4.069999999999999;;
74788;SDS011;63313;48.258;12.518;2023-04-25T18:37:33;8.370000000000001;;;3.88;;
74788;SDS011;63313;48.258;12.518;2023-04-25T18:43:00;9.14;;;4.49;;
74788;SDS011;63313;48.258;12.518;2023-04-25T18:48:27;7.3;;;4.43;;
74788;SDS011;63313;48.258;12.518;2023-04-25T18:53:55;5.9799999999999995;;;3.62;;
74788;SDS011;63313;48.258;12.518;2023-04-25T18:59:22;5.8100000000000005;;;4.08;;
74788;SDS011;63313;48.258;12.518;2023-04-25T19:04:49;5.63;;;4.180000000000001;;
74788;SDS011;63313;48.258;12.518;2023-04-25T19:10:16;6.07;;;4.24;;
74788;SDS011;63313;48.258;12.518;2023-04-25T19:15:43;6.8100000000000005;;;4.82;;
74788;SDS011;63313;48.258;12.518;2023-04-25T19:21:10;7.19;;;4.619999999999999;;
74788;SDS011;63313;48.258;12.518;2023-04-25T19:26:38;9.290000000000001;;;4.7299999999999995;;
74788;SDS011;63313;48.258;12.518;2023-04-25T19:32:05;8.799999999999999;;;4.9399999999999995;;
74788;SDS011;63313;48.258;12.518;2023-04-25T19:37:32;4.9;;;4.27;;
74788;SDS011;63313;48.258;12.518;2023-04-25T19:42:59;5.8999999999999995;;;4.640000000000001;;
74788;SDS011;63313;48.258;12.518;2023-04-25T19:48:26;5.95;;;4.32;;
74788;SDS011;63313;48.258;12.518;2023-04-25T19:53:54;6.83;;;4.18;;
74788;SDS011;63313;48.258;12.518;2023-04-25T19:59:21;5.4799999999999995;;;3.78;;
74788;SDS011;63313;48.258;12.518;2023-04-25T20:04:48;5.64;;;3.3899999999999997;;
74788;SDS011;63313;48.258;12.518;2023-04-25T20:10:15;8.97;;;2.87;;
74788;SDS011;63313;48.258;12.518;2023-04-25T20:15:42;4.6899999999999995;;;3.44;;
74788;SDS011;63313;48.258;12.518;2023-04-25T20:21:09;7.3199999999999985;;;3.7099999999999995;;
74788;SDS011;63313;48.258;12.518;2023-04-25T20:26:36;5.65;;;3.660000000000001;;
74788;SDS011;63313;48.258;12.518;2023-04-25T20:32:04;6.24;;;3.6800000000000006;;
74788;SDS011;63313;48.258;12.518;2023-04-25T20:37:31;4.35;;;2.87;;
74788;SDS011;63313;48.258;12.518;2023-04-25T20:42:58;5.6899999999999995;;;3.69;;
74788;SDS011;63313;48.258;12.518;2023-04-25T20:48:25;3.9500000000000006;;;2.6199999999999997;;
74788;SDS011;63313;48.258;12.518;2023-04-25T20:53:52;6.94;;;3.72;;
74788;SDS011;63313;48.258;12.518;2023-04-25T20:59:19;4.8100000000000005;;;3.1700000000000004;;
74788;SDS011;63313;48.258;12.518;2023-04-25T21:04:46;4.2299999999999995;;;2.71;;
74788;SDS011;63313;48.258;12.518;2023-04-25T21:10:14;5.180000000000001;;;3.3599999999999994;;
74788;SDS011;63313;48.258;12.518;2023-04-25T21:15:41;4.71;;;3.3600000000000003;;
74788;SDS011;63313;48.258;12.518;2023-04-25T21:21:08;3.69;;;3.34;;
74788;SDS011;63313;48.258;12.518;2023-04-25T21:26:35;5.83;;;3.9899999999999998;;
74788;SDS011;63313;48.258;12.518;2023-04-25T21:32:02;4.57;;;3.5799999999999996;;
74788;SDS011;63313;48.258;12.518;2023-04-25T21:37:29;8.27;;;3.6000000000000005;;
74788;SDS011;63313;48.258;12.518;2023-04-25T21:42:57;4.5200000000000005;;;3.55;;
74788;SDS011;63313;48.258;12.518;2023-04-25T21:48:24;5.81;;;4.450000000000001;;
74788;SDS011;63313;48.258;12.518;2023-04-25T21:53:51;5.62;;;3.55;;
74788;SDS011;63313;48.258;12.518;2023-04-25T21:59:18;7.360000000000001;;;4.0600000000000005;;
74788;SDS011;63313;48.258;12.518;2023-04-25T22:04:45;6.43;;;3.6800000000000006;;
74788;SDS011;63313;48.258;12.518;2023-04-25T22:10:12;5.07;;;3.8699999999999997;;
74788;SDS011;63313;48.258;12.518;2023-04-25T22:15:39;7.69;;;4.2;;
74788;SDS011;63313;48.258;12.518;2023-04-25T22:21:06;7.51;;;3.94;;
74788;SDS011;63313;48.258;12.518;2023-04-25T22:26:33;7.330000000000001;;;4.790000000000001;;
74788;SDS011;63313;48.258;12.518;2023-04-25T22:32:00;6.62;;;4.03;;
74788;SDS011;63313;48.258;12.518;2023-04-25T22:37:28;7.13;;;4.239999999999999;;
74788;SDS011;63313;48.258;12.518;2023-04-25T22:42:55;5.63;;;4.25;;
74788;SDS011;63313;48.258;12.518;2023-04-25T22:48:22;5.6;;;4.25;;
74788;SDS011;63313;48.258;12.518;2023-04-25T22:53:49;7.369999999999999;;;4.820000000000001;;
74788;SDS011;63313;48.258;12.518;2023-04-25T22:59:16;7.6;;;5.220000000000001;;
74788;SDS011;63313;48.258;12.518;2023-04-25T23:04:43;11.149999999999999;;;5.84;;
74788;SDS011;63313;48.258;12.518;2023-04-25T23:10:10;9.490000000000002;;;5.62;;
74788;SDS011;63313;48.258;12.518;2023-04-25T23:15:37;7.3100000000000005;;;4.66;;
74788;SDS011;63313;48.258;12.518;2023-04-25T23:21:05;7.959999999999999;;;4.55;;
74788;SDS011;63313;48.258;12.518;2023-04-25T23:26:32;5.15;;;3.7399999999999998;;
74788;SDS011;63313;48.258;12.518;2023-04-25T23:31:59;9.49;;;4.529999999999999;;
74788;SDS011;63313;48.258;12.518;2023-04-25T23:37:26;8.389999999999999;;;4.74;;
74788;SDS011;63313;48.258;12.518;2023-04-25T23:42:53;8.440000000000001;;;5.590000000000001;;
74788;SDS011;63313;48.258;12.518;2023-04-25T23:48:20;8.54;;;4.82;;
74788;SDS011;63313;48.258;12.518;2023-04-25T23:53:47;10.26;;;5.36;;
74788;SDS011;63313;48.258;12.518;2023-04-25T23:59:14;9.06;;;5.140000000000001;;
